sensor_id;sensor_type;location;lat;lon;timestamp;pressure;altitude;pressure_sealevel;temperature;humidity
51099;BME280;37146;48.210;16.234;2022-10-17T00:00:21;99780.75;;;8.87;100.00
51099;BME280;37146;48.210;16.234;2022-10-17T00:02:46;99776.47;;;8.81;100.00
51099;BME280;37146;48.210;16.234;2022-10-17T00:05:11;99786.16;;;8.85;100.00
51099;BME280;37146;48.210;16.234;2022-10-17T00:07:37;99780.13;;;8.78;100.00
51099;BME280;37146;48.210;16.234;2022-10-17T00:10:02;99785.09;;;8.61;100.00
51099;BME280;37146;48.210;16.234;2022-10-17T00:12:28;99780.22;;;8.75;100.00
51099;BME280;37146;48.210;16.234;2022-10-17T00:14:53;99789.53;;;8.90;100.00
51099;BME280;37146;48.210;16.234;2022-10-17T00:17:18;99777.63;;;8.74;100.00
51099;BME280;37146;48.210;16.234;2022-10-17T00:19:43;99785.47;;;8.78;100.00
51099;BME280;37146;48.210;16.234;2022-10-17T00:22:09;99787.06;;;8.84;100.00
51099;BME280;37146;48.210;16.234;2022-10-17T00:24:34;99784.56;;;8.78;100.00
51099;BME280;37146;48.210;16.234;2022-10-17T00:26:59;99788.97;;;8.80;100.00
51099;BME280;37146;48.210;16.234;2022-10-17T00:29:24;99795.50;;;8.70;100.00
51099;BME280;37146;48.210;16.234;2022-10-17T00:31:53;99799.41;;;8.58;100.00
51099;BME280;37146;48.210;16.234;2022-10-17T00:34:18;99791.50;;;8.55;100.00
51099;BME280;37146;48.210;16.234;2022-10-17T00:36:43;99797.38;;;8.66;100.00
51099;BME280;37146;48.210;16.234;2022-10-17T00:39:08;99793.22;;;8.58;100.00
51099;BME280;37146;48.210;16.234;2022-10-17T00:41:34;99802.31;;;8.50;100.00
51099;BME280;37146;48.210;16.234;2022-10-17T00:46:26;99795.31;;;8.46;100.00
51099;BME280;37146;48.210;16.234;2022-10-17T00:48:51;99801.50;;;8.48;100.00
51099;BME280;37146;48.210;16.234;2022-10-17T00:51:18;99798.78;;;8.50;100.00
51099;BME280;37146;48.210;16.234;2022-10-17T00:53:44;99794.47;;;8.44;100.00
51099;BME280;37146;48.210;16.234;2022-10-17T00:56:10;99793.72;;;8.39;100.00
51099;BME280;37146;48.210;16.234;2022-10-17T00:58:36;99785.78;;;8.38;100.00
51099;BME280;37146;48.210;16.234;2022-10-17T01:01:02;99789.28;;;8.40;100.00
51099;BME280;37146;48.210;16.234;2022-10-17T01:03:27;99797.22;;;8.41;100.00
51099;BME280;37146;48.210;16.234;2022-10-17T01:05:52;99791.81;;;8.44;100.00
51099;BME280;37146;48.210;16.234;2022-10-17T01:08:18;99784.47;;;8.53;100.00
51099;BME280;37146;48.210;16.234;2022-10-17T01:10:56;99784.94;;;8.37;100.00
51099;BME280;37146;48.210;16.234;2022-10-17T01:13:44;99787.06;;;8.24;100.00
51099;BME280;37146;48.210;16.234;2022-10-17T01:16:16;99779.97;;;8.25;100.00
51099;BME280;37146;48.210;16.234;2022-10-17T01:18:55;99775.28;;;8.33;100.00
51099;BME280;37146;48.210;16.234;2022-10-17T01:24:02;99771.56;;;8.09;100.00
51099;BME280;37146;48.210;16.234;2022-10-17T01:29:22;99777.75;;;8.39;100.00
51099;BME280;37146;48.210;16.234;2022-10-17T01:31:51;99768.94;;;8.37;100.00
51099;BME280;37146;48.210;16.234;2022-10-17T01:34:37;99768.41;;;8.26;100.00
51099;BME280;37146;48.210;16.234;2022-10-17T01:37:12;99776.53;;;8.21;100.00
51099;BME280;37146;48.210;16.234;2022-10-17T01:39:45;99775.56;;;8.24;100.00
51099;BME280;37146;48.210;16.234;2022-10-17T01:47:19;99768.19;;;8.02;100.00
51099;BME280;37146;48.210;16.234;2022-10-17T01:49:44;99772.34;;;8.12;100.00
51099;BME280;37146;48.210;16.234;2022-10-17T01:52:14;99765.19;;;8.13;100.00
51099;BME280;37146;48.210;16.234;2022-10-17T01:54:46;99758.44;;;8.01;100.00
51099;BME280;37146;48.210;16.234;2022-10-17T01:57:15;99765.03;;;7.87;100.00
51099;BME280;37146;48.210;16.234;2022-10-17T01:59:43;99751.81;;;7.84;100.00
51099;BME280;37146;48.210;16.234;2022-10-17T02:02:10;99755.63;;;7.76;100.00
51099;BME280;37146;48.210;16.234;2022-10-17T02:04:36;99756.78;;;7.97;100.00
51099;BME280;37146;48.210;16.234;2022-10-17T02:07:08;99753.56;;;7.85;100.00
51099;BME280;37146;48.210;16.234;2022-10-17T02:09:33;99748.63;;;8.03;100.00
51099;BME280;37146;48.210;16.234;2022-10-17T02:20:20;99747.66;;;7.74;100.00
51099;BME280;37146;48.210;16.234;2022-10-17T02:25:35;99759.44;;;7.97;100.00
51099;BME280;37146;48.210;16.234;2022-10-17T02:31:19;99758.66;;;7.93;100.00
51099;BME280;37146;48.210;16.234;2022-10-17T02:33:30;99759.78;;;7.86;100.00
51099;BME280;37146;48.210;16.234;2022-10-17T02:35:57;99762.72;;;7.75;100.00
51099;BME280;37146;48.210;16.234;2022-10-17T02:38:24;99760.91;;;7.77;100.00
51099;BME280;37146;48.210;16.234;2022-10-17T02:40:51;99765.53;;;7.70;100.00
51099;BME280;37146;48.210;16.234;2022-10-17T02:43:17;99765.13;;;7.84;100.00
51099;BME280;37146;48.210;16.234;2022-10-17T02:45:43;99761.66;;;7.82;100.00
51099;BME280;37146;48.210;16.234;2022-10-17T02:48:21;99773.78;;;7.93;100.00
51099;BME280;37146;48.210;16.234;2022-10-17T02:53:19;99775.78;;;7.84;100.00
51099;BME280;37146;48.210;16.234;2022-10-17T02:55:59;99777.09;;;8.01;100.00
51099;BME280;37146;48.210;16.234;2022-10-17T02:58:27;99779.41;;;8.13;100.00
51099;BME280;37146;48.210;16.234;2022-10-17T03:00:55;99776.56;;;8.19;100.00
51099;BME280;37146;48.210;16.234;2022-10-17T03:03:30;99782.84;;;8.17;100.00
51099;BME280;37146;48.210;16.234;2022-10-17T03:05:56;99780.75;;;7.97;100.00
51099;BME280;37146;48.210;16.234;2022-10-17T03:08:21;99787.63;;;8.05;100.00
51099;BME280;37146;48.210;16.234;2022-10-17T03:10:47;99781.03;;;7.87;100.00
51099;BME280;37146;48.210;16.234;2022-10-17T03:13:12;99794.06;;;7.97;100.00
51099;BME280;37146;48.210;16.234;2022-10-17T03:15:38;99794.13;;;7.95;100.00
51099;BME280;37146;48.210;16.234;2022-10-17T03:18:03;99793.34;;;7.92;100.00
51099;BME280;37146;48.210;16.234;2022-10-17T03:20:28;99798.50;;;7.98;100.00
51099;BME280;37146;48.210;16.234;2022-10-17T03:22:53;99798.56;;;7.95;100.00
51099;BME280;37146;48.210;16.234;2022-10-17T03:25:19;99800.06;;;8.05;100.00
51099;BME280;37146;48.210;16.234;2022-10-17T03:27:44;99800.06;;;8.05;100.00
51099;BME280;37146;48.210;16.234;2022-10-17T03:30:09;99801.88;;;7.71;100.00
51099;BME280;37146;48.210;16.234;2022-10-17T03:32:35;99803.72;;;7.69;100.00
51099;BME280;37146;48.210;16.234;2022-10-17T03:35:00;99810.06;;;7.64;100.00
51099;BME280;37146;48.210;16.234;2022-10-17T03:37:25;99813.69;;;7.61;100.00
51099;BME280;37146;48.210;16.234;2022-10-17T03:39:51;99817.00;;;7.71;100.00
51099;BME280;37146;48.210;16.234;2022-10-17T03:42:16;99822.16;;;7.77;100.00
51099;BME280;37146;48.210;16.234;2022-10-17T03:44:42;99823.13;;;7.74;100.00
51099;BME280;37146;48.210;16.234;2022-10-17T03:47:07;99821.38;;;7.72;100.00
51099;BME280;37146;48.210;16.234;2022-10-17T03:49:32;99821.94;;;7.85;100.00
51099;BME280;37146;48.210;16.234;2022-10-17T03:51:57;99824.03;;;7.73;100.00
51099;BME280;37146;48.210;16.234;2022-10-17T03:54:22;99824.72;;;7.80;100.00
51099;BME280;37146;48.210;16.234;2022-10-17T03:56:48;99830.13;;;7.77;100.00
51099;BME280;37146;48.210;16.234;2022-10-17T03:59:14;99833.78;;;7.73;100.00
51099;BME280;37146;48.210;16.234;2022-10-17T04:01:39;99832.13;;;7.69;100.00
51099;BME280;37146;48.210;16.234;2022-10-17T04:04:05;99825.91;;;7.68;100.00
51099;BME280;37146;48.210;16.234;2022-10-17T04:06:30;99831.56;;;7.57;100.00
51099;BME280;37146;48.210;16.234;2022-10-17T04:08:55;99833.19;;;7.62;100.00
51099;BME280;37146;48.210;16.234;2022-10-17T04:11:20;99828.84;;;7.59;100.00
51099;BME280;37146;48.210;16.234;2022-10-17T04:13:46;99826.97;;;7.63;100.00
51099;BME280;37146;48.210;16.234;2022-10-17T04:16:13;99833.56;;;7.48;100.00
51099;BME280;37146;48.210;16.234;2022-10-17T04:18:39;99843.09;;;7.56;100.00
51099;BME280;37146;48.210;16.234;2022-10-17T04:21:05;99837.78;;;7.56;100.00
51099;BME280;37146;48.210;16.234;2022-10-17T04:23:31;99838.53;;;7.62;100.00
51099;BME280;37146;48.210;16.234;2022-10-17T04:25:57;99839.53;;;7.57;100.00
51099;BME280;37146;48.210;16.234;2022-10-17T04:28:23;99842.94;;;7.63;100.00
51099;BME280;37146;48.210;16.234;2022-10-17T04:30:55;99838.44;;;7.65;100.00
51099;BME280;37146;48.210;16.234;2022-10-17T04:33:21;99838.53;;;7.62;100.00
51099;BME280;37146;48.210;16.234;2022-10-17T04:35:53;99845.84;;;7.53;100.00
51099;BME280;37146;48.210;16.234;2022-10-17T04:38:19;99844.09;;;7.52;100.00
51099;BME280;37146;48.210;16.234;2022-10-17T04:40:44;99845.59;;;7.63;100.00
51099;BME280;37146;48.210;16.234;2022-10-17T04:43:09;99857.16;;;7.62;100.00
51099;BME280;37146;48.210;16.234;2022-10-17T04:45:34;99854.38;;;7.66;100.00
51099;BME280;37146;48.210;16.234;2022-10-17T04:47:59;99858.75;;;7.69;100.00
51099;BME280;37146;48.210;16.234;2022-10-17T04:50:25;99856.19;;;7.66;100.00
51099;BME280;37146;48.210;16.234;2022-10-17T04:52:50;99856.09;;;7.69;100.00
51099;BME280;37146;48.210;16.234;2022-10-17T04:55:15;99857.84;;;7.70;100.00
51099;BME280;37146;48.210;16.234;2022-10-17T04:57:40;99867.53;;;7.72;100.00
51099;BME280;37146;48.210;16.234;2022-10-17T05:00:06;99857.25;;;7.58;100.00
51099;BME280;37146;48.210;16.234;2022-10-17T05:02:33;99862.34;;;7.66;100.00
51099;BME280;37146;48.210;16.234;2022-10-17T05:04:58;99862.47;;;7.62;100.00
51099;BME280;37146;48.210;16.234;2022-10-17T05:07:23;99879.59;;;7.51;100.00
51099;BME280;37146;48.210;16.234;2022-10-17T05:09:49;99872.88;;;7.38;100.00
51099;BME280;37146;48.210;16.234;2022-10-17T05:12:14;99883.19;;;7.50;100.00
51099;BME280;37146;48.210;16.234;2022-10-17T05:14:39;99883.28;;;7.46;100.00
51099;BME280;37146;48.210;16.234;2022-10-17T05:17:04;99884.19;;;7.46;100.00
51099;BME280;37146;48.210;16.234;2022-10-17T05:19:30;99894.00;;;7.44;100.00
51099;BME280;37146;48.210;16.234;2022-10-17T05:21:55;99885.84;;;7.50;100.00
51099;BME280;37146;48.210;16.234;2022-10-17T05:24:20;99890.34;;;7.48;100.00
51099;BME280;37146;48.210;16.234;2022-10-17T05:26:45;99894.53;;;7.58;100.00
51099;BME280;37146;48.210;16.234;2022-10-17T05:29:10;99900.69;;;7.61;100.00
51099;BME280;37146;48.210;16.234;2022-10-17T05:31:36;99898.78;;;7.66;100.00
51099;BME280;37146;48.210;16.234;2022-10-17T05:34:01;99895.19;;;7.67;100.00
51099;BME280;37146;48.210;16.234;2022-10-17T05:36:27;99910.22;;;7.69;100.00
51099;BME280;37146;48.210;16.234;2022-10-17T05:38:52;99909.19;;;7.75;100.00
51099;BME280;37146;48.210;16.234;2022-10-17T05:41:18;99911.72;;;7.80;100.00
51099;BME280;37146;48.210;16.234;2022-10-17T05:43:43;99910.38;;;7.98;100.00
51099;BME280;37146;48.210;16.234;2022-10-17T05:46:08;99914.34;;;8.16;100.00
51099;BME280;37146;48.210;16.234;2022-10-17T05:48:33;99918.50;;;8.59;100.00
51099;BME280;37146;48.210;16.234;2022-10-17T05:51:00;99920.53;;;8.16;100.00
51099;BME280;37146;48.210;16.234;2022-10-17T05:53:25;99929.78;;;8.03;100.00
51099;BME280;37146;48.210;16.234;2022-10-17T05:55:55;99928.31;;;7.91;100.00
51099;BME280;37146;48.210;16.234;2022-10-17T05:58:20;99924.41;;;8.04;100.00
51099;BME280;37146;48.210;16.234;2022-10-17T06:00:45;99930.59;;;8.05;100.00
51099;BME280;37146;48.210;16.234;2022-10-17T06:03:10;99935.78;;;8.11;100.00
51099;BME280;37146;48.210;16.234;2022-10-17T06:05:36;99935.78;;;8.11;100.00
51099;BME280;37146;48.210;16.234;2022-10-17T06:08:01;99931.13;;;8.19;100.00
51099;BME280;37146;48.210;16.234;2022-10-17T06:10:26;99937.03;;;8.31;100.00
51099;BME280;37146;48.210;16.234;2022-10-17T06:12:51;99941.53;;;8.29;100.00
51099;BME280;37146;48.210;16.234;2022-10-17T06:15:16;99944.03;;;8.35;100.00
51099;BME280;37146;48.210;16.234;2022-10-17T06:17:42;99945.44;;;8.50;100.00
51099;BME280;37146;48.210;16.234;2022-10-17T06:20:07;99944.09;;;8.65;100.00
51099;BME280;37146;48.210;16.234;2022-10-17T06:22:32;99948.34;;;8.72;100.00
51099;BME280;37146;48.210;16.234;2022-10-17T06:24:58;99944.13;;;8.95;100.00
51099;BME280;37146;48.210;16.234;2022-10-17T06:27:23;99955.31;;;9.08;100.00
51099;BME280;37146;48.210;16.234;2022-10-17T06:29:48;99956.13;;;9.38;100.00
51099;BME280;37146;48.210;16.234;2022-10-17T06:32:15;99959.25;;;9.53;100.00
51099;BME280;37146;48.210;16.234;2022-10-17T06:34:40;99959.44;;;9.75;100.00
51099;BME280;37146;48.210;16.234;2022-10-17T06:37:05;99960.91;;;9.84;100.00
51099;BME280;37146;48.210;16.234;2022-10-17T06:39:31;99958.81;;;9.94;100.00
51099;BME280;37146;48.210;16.234;2022-10-17T06:42:01;99976.84;;;10.14;100.00
51099;BME280;37146;48.210;16.234;2022-10-17T06:44:27;99967.59;;;10.24;100.00
51099;BME280;37146;48.210;16.234;2022-10-17T06:46:55;99970.19;;;10.52;100.00
51099;BME280;37146;48.210;16.234;2022-10-17T06:49:21;99975.03;;;10.66;100.00
51099;BME280;37146;48.210;16.234;2022-10-17T06:51:46;99979.69;;;10.85;100.00
51099;BME280;37146;48.210;16.234;2022-10-17T06:54:12;99975.72;;;10.95;100.00
51099;BME280;37146;48.210;16.234;2022-10-17T06:56:37;99979.69;;;11.09;100.00
51099;BME280;37146;48.210;16.234;2022-10-17T06:59:02;99981.47;;;11.32;100.00
51099;BME280;37146;48.210;16.234;2022-10-17T07:01:27;99989.56;;;11.31;100.00
51099;BME280;37146;48.210;16.234;2022-10-17T07:03:54;99988.81;;;11.27;100.00
51099;BME280;37146;48.210;16.234;2022-10-17T07:06:19;99995.28;;;11.21;100.00
51099;BME280;37146;48.210;16.234;2022-10-17T07:08:48;99992.63;;;11.43;100.00
51099;BME280;37146;48.210;16.234;2022-10-17T07:11:15;99993.34;;;11.49;100.00
51099;BME280;37146;48.210;16.234;2022-10-17T07:13:41;100001.25;;;11.52;100.00
51099;BME280;37146;48.210;16.234;2022-10-17T07:16:07;100002.72;;;11.81;100.00
51099;BME280;37146;48.210;16.234;2022-10-17T07:18:32;99998.66;;;11.72;100.00
51099;BME280;37146;48.210;16.234;2022-10-17T07:20:57;99996.41;;;11.84;100.00
51099;BME280;37146;48.210;16.234;2022-10-17T07:23:23;100000.75;;;11.86;100.00
51099;BME280;37146;48.210;16.234;2022-10-17T07:25:48;99998.16;;;11.85;100.00
51099;BME280;37146;48.210;16.234;2022-10-17T07:28:13;99998.88;;;11.88;100.00
51099;BME280;37146;48.210;16.234;2022-10-17T07:30:39;99998.03;;;12.10;100.00
51099;BME280;37146;48.210;16.234;2022-10-17T07:33:04;100001.03;;;12.23;100.00
51099;BME280;37146;48.210;16.234;2022-10-17T07:35:29;100007.84;;;12.10;100.00
51099;BME280;37146;48.210;16.234;2022-10-17T07:37:55;100002.69;;;12.05;100.00
51099;BME280;37146;48.210;16.234;2022-10-17T07:40:20;100008.59;;;12.13;100.00
51099;BME280;37146;48.210;16.234;2022-10-17T07:42:45;100013.97;;;12.13;100.00
51099;BME280;37146;48.210;16.234;2022-10-17T07:45:10;100009.97;;;12.24;100.00
51099;BME280;37146;48.210;16.234;2022-10-17T07:47:35;100007.22;;;12.25;100.00
51099;BME280;37146;48.210;16.234;2022-10-17T07:50:01;100015.88;;;12.32;100.00
51099;BME280;37146;48.210;16.234;2022-10-17T07:52:26;100007.81;;;12.73;100.00
51099;BME280;37146;48.210;16.234;2022-10-17T07:54:52;100010.69;;;12.89;100.00
51099;BME280;37146;48.210;16.234;2022-10-17T07:57:17;100012.16;;;13.15;100.00
51099;BME280;37146;48.210;16.234;2022-10-17T07:59:42;100019.94;;;13.42;100.00
51099;BME280;37146;48.210;16.234;2022-10-17T08:02:09;100014.91;;;13.54;100.00
51099;BME280;37146;48.210;16.234;2022-10-17T08:04:38;100014.88;;;13.73;100.00
51099;BME280;37146;48.210;16.234;2022-10-17T08:07:03;100014.81;;;14.11;100.00
51099;BME280;37146;48.210;16.234;2022-10-17T08:09:28;100013.84;;;14.65;100.00
51099;BME280;37146;48.210;16.234;2022-10-17T08:11:53;100018.94;;;14.36;100.00
51099;BME280;37146;48.210;16.234;2022-10-17T08:14:19;100015.59;;;14.66;100.00
51099;BME280;37146;48.210;16.234;2022-10-17T08:16:45;100027.34;;;16.28;100.00
51099;BME280;37146;48.210;16.234;2022-10-17T08:19:10;100028.69;;;15.73;100.00
51099;BME280;37146;48.210;16.234;2022-10-17T08:21:37;100023.34;;;16.35;100.00
51099;BME280;37146;48.210;16.234;2022-10-17T08:24:02;100026.88;;;16.97;98.91
51099;BME280;37146;48.210;16.234;2022-10-17T08:26:28;100030.88;;;16.45;100.00
51099;BME280;37146;48.210;16.234;2022-10-17T08:28:53;100027.38;;;16.12;100.00
51099;BME280;37146;48.210;16.234;2022-10-17T08:31:19;100031.25;;;17.56;91.20
51099;BME280;37146;48.210;16.234;2022-10-17T08:33:45;100029.06;;;18.04;87.77
51099;BME280;37146;48.210;16.234;2022-10-17T08:36:14;100029.56;;;17.82;89.17
51099;BME280;37146;48.210;16.234;2022-10-17T08:38:39;100028.28;;;19.72;77.74
51099;BME280;37146;48.210;16.234;2022-10-17T08:43:41;100033.19;;;20.04;77.43
51099;BME280;37146;48.210;16.234;2022-10-17T08:46:08;100035.00;;;19.79;76.29
51099;BME280;37146;48.210;16.234;2022-10-17T08:48:43;100026.25;;;19.12;79.07
51099;BME280;37146;48.210;16.234;2022-10-17T08:51:12;100033.16;;;20.52;77.11
51099;BME280;37146;48.210;16.234;2022-10-17T08:53:42;100028.34;;;19.46;76.59
51099;BME280;37146;48.210;16.234;2022-10-17T08:56:16;100023.84;;;19.58;76.14
51099;BME280;37146;48.210;16.234;2022-10-17T08:58:42;100036.41;;;19.22;78.47
51099;BME280;37146;48.210;16.234;2022-10-17T09:06:32;100025.66;;;20.32;73.56
51099;BME280;37146;48.210;16.234;2022-10-17T09:09:05;100028.50;;;20.66;71.90
51099;BME280;37146;48.210;16.234;2022-10-17T09:11:36;100027.28;;;20.70;71.49
51099;BME280;37146;48.210;16.234;2022-10-17T09:19:31;100027.56;;;20.43;73.38
51099;BME280;37146;48.210;16.234;2022-10-17T09:21:59;100026.47;;;20.92;71.07
51099;BME280;37146;48.210;16.234;2022-10-17T09:27:03;100027.88;;;21.21;70.51
51099;BME280;37146;48.210;16.234;2022-10-17T09:29:29;100023.66;;;20.94;71.25
51099;BME280;37146;48.210;16.234;2022-10-17T09:32:17;100031.19;;;21.81;67.06
51099;BME280;37146;48.210;16.234;2022-10-17T09:34:40;100026.75;;;21.69;67.13
51099;BME280;37146;48.210;16.234;2022-10-17T09:37:08;100031.47;;;21.44;69.18
51099;BME280;37146;48.210;16.234;2022-10-17T09:39:36;100027.88;;;21.32;68.00
51099;BME280;37146;48.210;16.234;2022-10-17T09:42:01;100029.72;;;20.50;71.93
51099;BME280;37146;48.210;16.234;2022-10-17T09:49:24;100029.16;;;22.38;64.08
51099;BME280;37146;48.210;16.234;2022-10-17T09:51:51;100037.78;;;21.78;66.87
51099;BME280;37146;48.210;16.234;2022-10-17T09:54:19;100031.56;;;21.20;69.76
51099;BME280;37146;48.210;16.234;2022-10-17T09:57:04;100038.94;;;22.52;64.90
51099;BME280;37146;48.210;16.234;2022-10-17T09:59:34;100040.22;;;21.02;70.78
51099;BME280;37146;48.210;16.234;2022-10-17T10:02:14;100035.25;;;21.98;67.61
51099;BME280;37146;48.210;16.234;2022-10-17T10:04:53;100038.34;;;22.37;66.04
51099;BME280;37146;48.210;16.234;2022-10-17T10:07:19;100038.16;;;22.18;66.91
51099;BME280;37146;48.210;16.234;2022-10-17T10:09:45;100029.28;;;22.48;66.57
51099;BME280;37146;48.210;16.234;2022-10-17T10:12:44;100027.94;;;21.99;67.86
51099;BME280;37146;48.210;16.234;2022-10-17T10:15:26;100019.34;;;23.11;65.52
51099;BME280;37146;48.210;16.234;2022-10-17T10:17:47;100012.25;;;23.29;65.72
51099;BME280;37146;48.210;16.234;2022-10-17T10:20:29;100022.25;;;23.50;64.51
51099;BME280;37146;48.210;16.234;2022-10-17T10:25:33;100009.34;;;24.03;64.68
51099;BME280;37146;48.210;16.234;2022-10-17T10:27:59;100006.38;;;23.75;62.78
51099;BME280;37146;48.210;16.234;2022-10-17T10:30:27;100005.72;;;22.90;65.55
51099;BME280;37146;48.210;16.234;2022-10-17T10:32:53;100005.22;;;23.06;66.21
51099;BME280;37146;48.210;16.234;2022-10-17T10:35:21;100002.78;;;23.03;64.88
51099;BME280;37146;48.210;16.234;2022-10-17T10:37:52;99991.25;;;23.20;65.38
51099;BME280;37146;48.210;16.234;2022-10-17T10:40:35;99996.69;;;22.47;67.09
51099;BME280;37146;48.210;16.234;2022-10-17T10:43:03;100005.03;;;22.01;67.71
51099;BME280;37146;48.210;16.234;2022-10-17T10:48:09;99985.94;;;21.35;73.03
51099;BME280;37146;48.210;16.234;2022-10-17T10:50:39;99980.88;;;21.30;72.88
51099;BME280;37146;48.210;16.234;2022-10-17T11:01:02;99974.75;;;21.83;71.94
51099;BME280;37146;48.210;16.234;2022-10-17T11:03:30;99968.00;;;21.32;72.54
51099;BME280;37146;48.210;16.234;2022-10-17T11:06:05;99962.22;;;21.14;73.19
51099;BME280;37146;48.210;16.234;2022-10-17T11:08:44;99959.97;;;21.65;71.62
51099;BME280;37146;48.210;16.234;2022-10-17T11:11:13;99961.72;;;21.20;72.91
51099;BME280;37146;48.210;16.234;2022-10-17T11:14:17;99971.94;;;21.39;72.57
51099;BME280;37146;48.210;16.234;2022-10-17T11:19:15;99950.44;;;21.59;73.30
51099;BME280;37146;48.210;16.234;2022-10-17T11:21:46;99946.09;;;21.34;72.55
51099;BME280;37146;48.210;16.234;2022-10-17T11:24:20;99951.66;;;21.43;72.75
51099;BME280;37146;48.210;16.234;2022-10-17T11:27:00;99945.22;;;21.56;71.65
51099;BME280;37146;48.210;16.234;2022-10-17T11:29:30;99942.75;;;21.41;70.76
51099;BME280;37146;48.210;16.234;2022-10-17T11:31:56;99937.69;;;21.37;71.99
51099;BME280;37146;48.210;16.234;2022-10-17T11:34:24;99937.31;;;21.64;70.75
51099;BME280;37146;48.210;16.234;2022-10-17T11:36:50;99949.72;;;21.34;71.43
51099;BME280;37146;48.210;16.234;2022-10-17T11:39:26;99937.22;;;21.87;69.38
51099;BME280;37146;48.210;16.234;2022-10-17T11:41:54;99949.78;;;21.67;69.22
51099;BME280;37146;48.210;16.234;2022-10-17T11:44:24;99928.84;;;21.78;69.21
51099;BME280;37146;48.210;16.234;2022-10-17T11:46:53;99941.78;;;21.42;70.45
51099;BME280;37146;48.210;16.234;2022-10-17T11:49:31;99929.28;;;21.62;70.76
51099;BME280;37146;48.210;16.234;2022-10-17T11:54:31;99923.91;;;21.72;69.81
51099;BME280;37146;48.210;16.234;2022-10-17T11:59:43;99927.91;;;21.57;69.87
51099;BME280;37146;48.210;16.234;2022-10-17T12:02:26;99926.63;;;21.72;69.50
51099;BME280;37146;48.210;16.234;2022-10-17T12:07:37;99914.28;;;22.22;65.73
51099;BME280;37146;48.210;16.234;2022-10-17T12:10:18;99909.38;;;22.16;66.62
51099;BME280;37146;48.210;16.234;2022-10-17T12:12:47;99909.75;;;21.90;66.74
51099;BME280;37146;48.210;16.234;2022-10-17T12:17:45;99911.69;;;21.99;66.79
51099;BME280;37146;48.210;16.234;2022-10-17T12:22:47;99904.84;;;22.05;66.39
51099;BME280;37146;48.210;16.234;2022-10-17T12:25:32;99897.91;;;22.01;66.28
51099;BME280;37146;48.210;16.234;2022-10-17T12:28:03;99902.38;;;22.02;66.40
51099;BME280;37146;48.210;16.234;2022-10-17T12:30:32;99892.53;;;21.89;66.25
51099;BME280;37146;48.210;16.234;2022-10-17T12:32:59;99907.47;;;21.95;66.34
51099;BME280;37146;48.210;16.234;2022-10-17T12:35:26;99897.31;;;21.97;65.17
51099;BME280;37146;48.210;16.234;2022-10-17T12:48:09;99893.34;;;22.01;64.24
51099;BME280;37146;48.210;16.234;2022-10-17T12:51:17;99892.53;;;21.89;64.12
51099;BME280;37146;48.210;16.234;2022-10-17T12:53:22;99899.25;;;21.85;64.73
51099;BME280;37146;48.210;16.234;2022-10-17T12:55:52;99886.63;;;21.84;63.92
51099;BME280;37146;48.210;16.234;2022-10-17T12:58:22;99909.25;;;21.85;64.67
51099;BME280;37146;48.210;16.234;2022-10-17T13:00:52;99891.72;;;21.77;63.94
51099;BME280;37146;48.210;16.234;2022-10-17T13:03:19;99889.09;;;21.87;64.35
51099;BME280;37146;48.210;16.234;2022-10-17T13:05:47;99883.81;;;21.74;64.06
51099;BME280;37146;48.210;16.234;2022-10-17T13:08:32;99883.38;;;21.90;63.50
51099;BME280;37146;48.210;16.234;2022-10-17T13:10:59;99879.78;;;21.90;63.67
51099;BME280;37146;48.210;16.234;2022-10-17T13:13:34;99890.19;;;21.85;63.13
51099;BME280;37146;48.210;16.234;2022-10-17T13:16:00;99900.84;;;21.88;62.73
51099;BME280;37146;48.210;16.234;2022-10-17T13:18:27;99892.72;;;21.76;63.01
51099;BME280;37146;48.210;16.234;2022-10-17T13:20:55;99892.06;;;21.84;62.67
51099;BME280;37146;48.210;16.234;2022-10-17T13:23:21;99889.94;;;21.88;63.26
51099;BME280;37146;48.210;16.234;2022-10-17T13:25:46;99891.13;;;21.95;62.29
51099;BME280;37146;48.210;16.234;2022-10-17T13:28:11;99884.44;;;21.99;62.50
51099;BME280;37146;48.210;16.234;2022-10-17T13:30:37;99884.50;;;21.88;62.28
51099;BME280;37146;48.210;16.234;2022-10-17T13:33:15;99879.91;;;21.88;61.82
51099;BME280;37146;48.210;16.234;2022-10-17T13:35:40;99879.06;;;21.88;61.90
51099;BME280;37146;48.210;16.234;2022-10-17T13:38:05;99875.53;;;21.76;61.98
51099;BME280;37146;48.210;16.234;2022-10-17T13:40:37;99879.09;;;21.76;62.16
51099;BME280;37146;48.210;16.234;2022-10-17T13:43:03;99884.63;;;21.86;61.39
51099;BME280;37146;48.210;16.234;2022-10-17T13:45:36;99877.31;;;21.87;62.22
51099;BME280;37146;48.210;16.234;2022-10-17T13:48:02;99880.63;;;21.90;61.34
51099;BME280;37146;48.210;16.234;2022-10-17T13:50:32;99878.31;;;21.86;61.63
51099;BME280;37146;48.210;16.234;2022-10-17T13:55:37;99886.75;;;21.83;61.34
51099;BME280;37146;48.210;16.234;2022-10-17T13:58:38;99890.47;;;21.82;61.18
51099;BME280;37146;48.210;16.234;2022-10-17T14:00:54;99880.19;;;21.85;61.16
51099;BME280;37146;48.210;16.234;2022-10-17T14:03:21;99888.75;;;21.81;61.17
51099;BME280;37146;48.210;16.234;2022-10-17T14:06:03;99887.41;;;21.75;61.22
51099;BME280;37146;48.210;16.234;2022-10-17T14:08:30;99881.38;;;21.71;61.84
51099;BME280;37146;48.210;16.234;2022-10-17T14:10:56;99883.31;;;21.81;61.80
51099;BME280;37146;48.210;16.234;2022-10-17T14:13:23;99877.91;;;21.69;61.92
51099;BME280;37146;48.210;16.234;2022-10-17T14:15:50;99893.50;;;21.67;61.88
51099;BME280;37146;48.210;16.234;2022-10-17T14:18:18;99883.59;;;21.66;62.06
51099;BME280;37146;48.210;16.234;2022-10-17T14:20:48;99877.91;;;21.69;61.72